createdAt,value
2022-08-08T00:00:52.140Z,56.40
2022-08-08T00:03:13.158Z,55.81
2022-08-08T00:06:07.178Z,55.95
2022-08-08T00:08:49.208Z,56.43
2022-08-08T00:11:46.475Z,56.30
2022-08-08T00:14:59.944Z,56.73
2022-08-08T00:17:58.594Z,57.00
2022-08-08T00:20:44.577Z,57.35
2022-08-08T00:23:42.822Z,57.53
2022-08-08T00:26:29.306Z,57.97
2022-08-08T00:29:15.040Z,58.18
2022-08-08T00:32:21.409Z,59.02
2022-08-08T00:35:18.650Z,59.06
2022-08-08T00:38:31.426Z,59.11
2022-08-08T00:42:09.180Z,59.45
2022-08-08T00:45:27.284Z,59.33
2022-08-08T00:48:36.485Z,59.29
2022-08-08T00:51:51.102Z,59.06
2022-08-08T00:55:06.506Z,58.62
2022-08-08T00:58:31.927Z,58.80
2022-08-08T01:01:29.268Z,58.97
2022-08-08T01:05:09.430Z,59.13
2022-08-08T01:08:46.770Z,59.61
2022-08-08T01:12:04.366Z,59.92
2022-08-08T01:15:37.234Z,61.25
2022-08-08T01:19:13.863Z,61.31
2022-08-08T01:22:47.002Z,61.97
2022-08-08T01:26:11.378Z,61.85
2022-08-08T01:29:35.362Z,62.94
2022-08-08T01:33:24.270Z,62.86
2022-08-08T01:36:53.329Z,63.37
2022-08-08T01:39:41.761Z,63.30
2022-08-08T01:42:36.204Z,64.20
2022-08-08T01:45:34.308Z,63.57
2022-08-08T01:48:30.778Z,64.29
2022-08-08T01:52:44.081Z,64.22
2022-08-08T01:55:46.330Z,64.13
2022-08-08T01:58:12.585Z,63.96
2022-08-08T02:00:57.557Z,64.89
2022-08-08T02:03:56.090Z,64.69
2022-08-08T02:07:01.970Z,64.88
2022-08-08T02:10:03.920Z,64.82
2022-08-08T02:12:53.422Z,63.42
2022-08-08T02:15:38.508Z,64.11
2022-08-08T02:18:18.949Z,63.18
2022-08-08T02:21:20.254Z,63.31
2022-08-08T02:24:01.490Z,63.61
2022-08-08T02:26:46.254Z,63.76
2022-08-08T02:29:56.330Z,64.50
2022-08-08T02:33:01.558Z,64.14
2022-08-08T02:36:12.589Z,64.66
2022-08-08T02:39:40.766Z,64.78
2022-08-08T02:44:38.225Z,65.01
2022-08-08T02:46:58.526Z,64.88
2022-08-08T02:50:18.218Z,65.24
2022-08-08T02:53:38.216Z,66.83
2022-08-08T02:56:48.817Z,65.82
2022-08-08T03:00:33.556Z,65.82
2022-08-08T03:05:04.163Z,65.59
2022-08-08T03:08:01.469Z,66.11
2022-08-08T03:11:47.433Z,66.44
2022-08-08T03:16:00.662Z,66.54
2022-08-08T03:18:08.826Z,67.05
2022-08-08T03:20:47.058Z,67.07
2022-08-08T03:23:39.676Z,67.26
2022-08-08T03:26:33.581Z,66.52
2022-08-08T03:29:54.638Z,67.23
2022-08-08T03:32:33.053Z,68.01
2022-08-08T03:35:09.547Z,68.49
2022-08-08T03:37:59.370Z,68.32
2022-08-08T03:40:37.727Z,67.70
2022-08-08T03:43:15.856Z,68.89
2022-08-08T03:46:06.716Z,68.86
2022-08-08T03:49:27.978Z,68.69
2022-08-08T03:51:50.709Z,67.97
2022-08-08T03:54:40.547Z,68.59
2022-08-08T03:58:29.945Z,68.21
2022-08-08T04:00:18.250Z,69.16
2022-08-08T04:02:57.659Z,68.44
2022-08-08T04:05:36.631Z,69.63
2022-08-08T04:08:32.980Z,69.29
2022-08-08T04:11:11.152Z,70.45
2022-08-08T04:14:03.043Z,70.09
2022-08-08T04:16:38.935Z,70.00
2022-08-08T04:19:23.950Z,69.11
2022-08-08T04:21:58.487Z,69.72
2022-08-08T04:24:31.912Z,70.09
2022-08-08T04:27:10.330Z,69.69
2022-08-08T04:29:55.445Z,69.64
2022-08-08T04:32:38.108Z,69.61
2022-08-08T04:35:14.703Z,69.61
2022-08-08T04:37:49.151Z,70.22
2022-08-08T04:40:24.258Z,69.64
2022-08-08T04:43:01.179Z,69.41
2022-08-08T04:45:36.628Z,70.21
2022-08-08T04:48:09.958Z,69.84
2022-08-08T04:50:45.957Z,69.99
2022-08-08T04:54:27.250Z,70.60
2022-08-08T04:56:12.858Z,71.02
2022-08-08T04:58:48.452Z,70.09
2022-08-08T05:01:25.418Z,69.83
2022-08-08T05:04:12.696Z,69.83
2022-08-08T05:06:47.349Z,69.58
2022-08-08T05:09:26.131Z,70.19
2022-08-08T05:12:03.317Z,70.06
2022-08-08T05:14:36.422Z,69.14
2022-08-08T05:17:12.562Z,68.53
2022-08-08T05:20:12.535Z,68.56
2022-08-08T05:22:41.744Z,67.84
2022-08-08T05:25:14.896Z,67.70
2022-08-08T05:27:48.689Z,65.54
2022-08-08T05:30:28.594Z,62.83
2022-08-08T05:33:03.825Z,60.56
2022-08-08T05:35:39.691Z,58.28
2022-08-08T05:38:30.461Z,56.36
2022-08-08T05:41:06.079Z,54.52
2022-08-08T05:44:03.869Z,53.26
2022-08-08T05:46:39.332Z,51.89
2022-08-08T05:49:15.973Z,51.04
2022-08-08T05:51:49.759Z,50.05
2022-08-08T05:54:50.150Z,49.29
2022-08-08T05:58:04.092Z,48.32
2022-08-08T06:00:23.702Z,47.63
2022-08-08T06:03:17.377Z,46.66
2022-08-08T06:06:06.005Z,46.34
2022-08-08T06:08:53.378Z,46.44
2022-08-08T06:11:32.562Z,45.26
2022-08-08T06:14:12.958Z,45.54
2022-08-08T06:16:52.001Z,44.65
2022-08-08T06:19:27.491Z,43.29
2022-08-08T06:22:32.075Z,43.66
2022-08-08T06:24:55.175Z,43.65
2022-08-08T06:27:38.806Z,43.00
2022-08-08T06:30:20.396Z,42.01
2022-08-08T06:33:02.379Z,41.33
2022-08-08T06:36:06.063Z,40.03
2022-08-08T06:38:37.997Z,39.75
2022-08-08T06:41:15.348Z,38.39
2022-08-08T06:43:57.104Z,38.65
2022-08-08T06:46:31.258Z,38.38
2022-08-08T06:49:05.922Z,38.83
2022-08-08T06:51:47.110Z,37.75
2022-08-08T06:54:27.143Z,38.71
2022-08-08T06:57:00.940Z,38.55
2022-08-08T07:00:09.964Z,38.34
2022-08-08T07:02:33.440Z,37.63
2022-08-08T07:05:11.855Z,37.59
2022-08-08T07:08:03.045Z,38.42
2022-08-08T07:10:47.726Z,38.08
2022-08-08T07:13:25.230Z,37.95
2022-08-08T07:16:10.371Z,36.94
2022-08-08T07:19:00.816Z,35.90
2022-08-08T07:21:44.605Z,35.68
2022-08-08T07:24:27.630Z,35.72
2022-08-08T07:27:04.854Z,36.32
2022-08-08T07:30:02.090Z,35.81
2022-08-08T07:32:33.743Z,34.70
2022-08-08T07:35:08.776Z,34.65
2022-08-08T07:37:55.914Z,34.26
2022-08-08T07:40:37.919Z,33.73
2022-08-08T07:43:16.804Z,33.20
2022-08-08T07:46:18.403Z,32.70
2022-08-08T07:48:49.400Z,33.20
2022-08-08T07:51:45.199Z,31.83
2022-08-08T07:54:26.759Z,32.17
2022-08-08T07:57:19.786Z,31.33
2022-08-08T08:00:02.210Z,31.87
2022-08-08T08:02:41.696Z,31.75
2022-08-08T08:05:22.444Z,31.77
2022-08-08T08:08:06.436Z,31.85
2022-08-08T08:10:41.102Z,32.86
2022-08-08T08:13:42.669Z,32.23
2022-08-08T08:16:32.225Z,33.07
2022-08-08T08:19:08.290Z,33.43
2022-08-08T08:21:52.275Z,32.88
2022-08-08T08:24:32.467Z,31.47
2022-08-08T08:27:09.426Z,32.61
2022-08-08T08:29:42.641Z,33.25
2022-08-08T08:32:31.795Z,32.52
2022-08-08T08:35:10.797Z,32.45
2022-08-08T08:38:14.674Z,31.82
2022-08-08T08:40:41.524Z,32.12
2022-08-08T08:43:18.787Z,31.72
2022-08-08T08:45:57.377Z,30.87
2022-08-08T08:48:33.175Z,31.00
2022-08-08T08:51:16.608Z,32.02
2022-08-08T08:53:58.894Z,31.92
2022-08-08T08:56:37.482Z,30.48
2022-08-08T08:59:15.705Z,31.66
2022-08-08T09:01:52.707Z,30.42
2022-08-08T09:04:30.858Z,29.38
2022-08-08T09:07:12.244Z,29.63
2022-08-08T09:09:55.102Z,29.74
2022-08-08T09:12:35.319Z,28.16
2022-08-08T09:15:10.195Z,28.44
2022-08-08T09:17:52.290Z,28.27
2022-08-08T09:22:02.132Z,27.06
2022-08-08T09:23:26.241Z,27.09
2022-08-08T09:26:16.095Z,27.12
2022-08-08T09:28:51.529Z,28.39
2022-08-08T09:31:56.730Z,28.58
2022-08-08T09:34:35.438Z,28.98
2022-08-08T09:37:57.181Z,28.87
2022-08-08T09:40:10.594Z,27.20
2022-08-08T09:42:51.824Z,27.68
2022-08-08T09:46:01.198Z,27.49
2022-08-08T09:48:35.346Z,27.96
2022-08-08T09:51:10.473Z,27.49
2022-08-08T09:54:06.839Z,27.70
2022-08-08T09:56:49.395Z,29.56
2022-08-08T10:00:01.195Z,29.00
2022-08-08T10:02:24.839Z,29.55
2022-08-08T10:05:07.008Z,27.22
2022-08-08T10:07:59.759Z,28.16
2022-08-08T10:10:37.973Z,27.76
2022-08-08T10:13:19.315Z,28.08
2022-08-08T10:16:03.687Z,26.85
2022-08-08T10:18:39.601Z,28.00
2022-08-08T10:21:25.181Z,27.96
2022-08-08T10:24:05.180Z,27.72
2022-08-08T10:27:02.441Z,26.93
2022-08-08T10:29:59.303Z,27.23
2022-08-08T10:32:37.281Z,26.68
2022-08-08T10:36:01.952Z,26.97
2022-08-08T10:38:16.336Z,26.55
2022-08-08T10:40:53.910Z,26.70
2022-08-08T10:43:40.337Z,26.77
2022-08-08T10:46:29.549Z,27.54
2022-08-08T10:49:03.744Z,26.42
2022-08-08T10:51:40.878Z,26.52
2022-08-08T10:54:27.077Z,27.19
2022-08-08T10:57:03.865Z,26.66
2022-08-08T10:59:39.550Z,26.01
2022-08-08T11:02:14.084Z,26.75
2022-08-08T11:04:53.289Z,25.99
2022-08-08T11:08:29.970Z,26.36
2022-08-08T11:10:29.229Z,25.92
2022-08-08T11:16:01.047Z,26.02
2022-08-08T11:18:41.499Z,26.21
2022-08-08T11:21:19.572Z,24.77
2022-08-08T11:24:02.018Z,25.75
2022-08-08T11:26:53.932Z,26.46
2022-08-08T11:29:50.823Z,26.89
2022-08-08T11:32:29.359Z,25.38
2022-08-08T11:35:27.226Z,25.80
2022-08-08T11:38:36.710Z,26.45
2022-08-08T11:40:56.667Z,26.09
2022-08-08T11:43:39.117Z,25.56
2022-08-08T11:46:18.332Z,25.66
2022-08-08T11:48:54.354Z,26.17
2022-08-08T11:51:30.675Z,26.74
2022-08-08T11:54:31.529Z,25.94
2022-08-08T11:57:16.961Z,26.78
2022-08-08T12:00:00.303Z,26.28
2022-08-08T12:02:48.913Z,27.23
2022-08-08T12:05:35.227Z,27.14
2022-08-08T12:08:10.288Z,26.62
2022-08-08T12:10:49.027Z,27.26
2022-08-08T12:13:37.640Z,27.38
2022-08-08T12:16:31.827Z,27.33
2022-08-08T12:19:12.913Z,27.33
2022-08-08T12:21:59.150Z,25.84
2022-08-08T12:24:54.046Z,26.56
2022-08-08T12:27:45.115Z,27.24
2022-08-08T12:30:31.649Z,27.30
2022-08-08T12:33:07.719Z,26.80
2022-08-08T12:35:52.887Z,27.48
2022-08-08T12:38:30.304Z,27.13
2022-08-08T12:41:24.495Z,27.44
2022-08-08T12:44:10.485Z,27.46
2022-08-08T12:46:43.576Z,27.54
2022-08-08T12:49:43.010Z,27.00
2022-08-08T12:52:28.929Z,26.57
2022-08-08T12:55:13.676Z,26.25
2022-08-08T12:57:49.841Z,25.61
2022-08-08T13:00:34.025Z,25.71
2022-08-08T13:03:25.439Z,25.87
2022-08-08T13:06:13.827Z,25.44
2022-08-08T13:08:53.632Z,25.95
2022-08-08T13:12:27.981Z,25.73
2022-08-08T13:14:40.380Z,25.59
2022-08-08T13:17:53.999Z,26.64
2022-08-08T13:20:21.978Z,26.42
2022-08-08T13:23:26.844Z,25.63
2022-08-08T13:25:50.190Z,25.68
2022-08-08T13:28:33.246Z,25.91
2022-08-08T13:31:06.785Z,26.35
2022-08-08T13:33:43.381Z,25.70
2022-08-08T13:36:17.187Z,26.00
2022-08-08T13:38:50.358Z,26.10
2022-08-08T13:41:24.182Z,26.68
2022-08-08T13:44:03.053Z,26.12
2022-08-08T13:46:37.977Z,26.26
2022-08-08T13:50:37.384Z,26.63
2022-08-08T13:52:12.499Z,26.48
2022-08-08T13:55:08.255Z,26.61
2022-08-08T13:58:06.309Z,25.60
2022-08-08T14:00:45.198Z,26.22
2022-08-08T14:03:53.847Z,26.33
2022-08-08T14:06:33.105Z,25.36
2022-08-08T14:09:25.303Z,25.03
2022-08-08T14:12:06.150Z,25.25
2022-08-08T14:14:41.718Z,24.99
2022-08-08T14:17:36.446Z,25.54
2022-08-08T14:20:56.408Z,25.54
2022-08-08T14:23:21.537Z,26.59
2022-08-08T14:26:10.777Z,26.31
2022-08-08T14:28:53.486Z,25.32
2022-08-08T14:32:05.806Z,25.79
2022-08-08T14:34:23.252Z,26.12
2022-08-08T14:37:08.436Z,25.12
2022-08-08T14:39:50.188Z,25.74
2022-08-08T14:42:54.676Z,24.69
2022-08-08T14:45:46.747Z,25.04
2022-08-08T14:48:34.789Z,24.85
2022-08-08T14:51:17.655Z,25.03
2022-08-08T14:53:54.657Z,24.70
2022-08-08T14:56:29.639Z,25.92
2022-08-08T14:59:31.643Z,26.61
2022-08-08T15:01:58.873Z,26.24
2022-08-08T15:04:33.435Z,26.08
2022-08-08T15:07:22.483Z,25.66
2022-08-08T15:09:57.813Z,25.86
2022-08-08T15:12:31.768Z,25.03
2022-08-08T15:15:06.871Z,25.36
2022-08-08T15:17:43.410Z,25.21
2022-08-08T15:20:18.654Z,25.13
2022-08-08T15:22:53.549Z,25.01
2022-08-08T15:25:33.133Z,25.11
2022-08-08T15:28:33.383Z,24.73
2022-08-08T15:31:05.177Z,24.77
2022-08-08T15:33:59.328Z,24.97
2022-08-08T15:36:32.403Z,25.29
2022-08-08T15:39:07.005Z,24.84
2022-08-08T15:41:43.797Z,25.73
2022-08-08T15:44:19.527Z,25.23
2022-08-08T15:46:52.822Z,25.04
2022-08-08T15:49:27.637Z,24.70
2022-08-08T15:52:08.514Z,24.43
2022-08-08T15:54:46.218Z,24.85
2022-08-08T15:57:23.057Z,24.19
2022-08-08T16:00:05.341Z,25.01
2022-08-08T16:02:51.119Z,24.47
2022-08-08T16:05:25.558Z,25.03
2022-08-08T16:08:12.286Z,24.71
2022-08-08T16:13:12.267Z,24.95
2022-08-08T16:13:44.989Z,24.14
2022-08-08T16:16:19.314Z,24.85
2022-08-08T16:18:57.877Z,25.55
2022-08-08T16:21:33.414Z,24.37
2022-08-08T16:24:10.172Z,24.81
2022-08-08T16:26:48.989Z,23.96
2022-08-08T16:29:37.541Z,23.90
2022-08-08T16:32:20.029Z,24.55
2022-08-08T16:34:56.152Z,24.37
2022-08-08T16:37:29.713Z,24.52
2022-08-08T16:40:04.147Z,23.66
2022-08-08T16:42:40.311Z,24.30
2022-08-08T16:46:36.125Z,24.41
2022-08-08T16:48:07.138Z,24.60
2022-08-08T16:50:40.376Z,24.08
2022-08-08T16:55:03.014Z,25.01
2022-08-08T16:56:14.073Z,24.49
2022-08-08T16:58:49.635Z,24.17
2022-08-08T17:01:22.807Z,24.91
2022-08-08T17:04:01.211Z,24.49
2022-08-08T17:06:43.220Z,25.47
2022-08-08T17:09:19.665Z,25.30
2022-08-08T17:11:59.287Z,25.49
2022-08-08T17:14:37.510Z,24.59
2022-08-08T17:17:41.358Z,24.30
2022-08-08T17:20:06.711Z,24.79
2022-08-08T17:22:42.611Z,25.06
2022-08-08T17:25:15.844Z,24.68
2022-08-08T17:27:50.497Z,24.84
2022-08-08T17:30:29.373Z,25.21
2022-08-08T17:34:35.673Z,25.17
2022-08-08T17:36:11.353Z,25.39
2022-08-08T17:38:49.539Z,25.48
2022-08-08T17:41:38.529Z,25.78
2022-08-08T17:44:12.450Z,25.37
2022-08-08T17:46:49.344Z,25.46
2022-08-08T17:49:24.964Z,25.81
2022-08-08T17:52:01.992Z,25.85
2022-08-08T17:54:38.000Z,26.02
2022-08-08T17:57:14.236Z,26.45
2022-08-08T17:59:47.676Z,26.46
2022-08-08T18:02:28.643Z,26.74
2022-08-08T18:05:04.470Z,27.30
2022-08-08T18:08:02.691Z,27.30
2022-08-08T18:10:31.917Z,27.48
2022-08-08T18:13:07.415Z,27.46
2022-08-08T18:15:42.215Z,27.52
2022-08-08T18:18:31.573Z,28.08
2022-08-08T18:21:10.857Z,28.24
2022-08-08T18:23:58.964Z,28.22
2022-08-08T18:26:33.832Z,28.70
2022-08-08T18:29:08.940Z,29.10
2022-08-08T18:31:48.881Z,29.74
2022-08-08T18:34:27.072Z,30.88
2022-08-08T18:37:04.714Z,30.79
2022-08-08T18:39:41.239Z,30.85
2022-08-08T18:42:16.540Z,31.56
2022-08-08T18:44:55.048Z,31.56
2022-08-08T18:47:31.462Z,31.80
2022-08-08T18:50:10.060Z,31.70
2022-08-08T18:52:43.224Z,32.04
2022-08-08T18:55:17.170Z,32.59
2022-08-08T18:57:53.533Z,32.66
2022-08-08T19:00:26.667Z,33.59
2022-08-08T19:03:04.171Z,33.36
2022-08-08T19:05:45.350Z,34.03
2022-08-08T19:08:25.497Z,34.07
2022-08-08T19:11:02.881Z,34.45
2022-08-08T19:13:56.640Z,35.16
2022-08-08T19:16:32.119Z,36.17
2022-08-08T19:19:13.130Z,36.98
2022-08-08T19:21:50.102Z,37.61
2022-08-08T19:24:41.788Z,38.11
2022-08-08T19:27:16.402Z,39.32
2022-08-08T19:30:18.125Z,39.39
2022-08-08T19:33:00.616Z,39.66
2022-08-08T19:35:44.457Z,39.73
2022-08-08T19:38:22.221Z,39.59
2022-08-08T19:40:56.257Z,40.11
2022-08-08T19:43:30.493Z,40.74
2022-08-08T19:46:03.891Z,41.13
2022-08-08T19:48:37.144Z,41.49
2022-08-08T19:51:10.270Z,41.97
2022-08-08T19:53:53.399Z,42.06
2022-08-08T19:56:39.833Z,42.59
2022-08-08T19:59:14.124Z,42.13
2022-08-08T20:02:02.976Z,42.79
2022-08-08T20:04:37.616Z,43.23
2022-08-08T20:08:28.313Z,43.79
2022-08-08T20:10:08.680Z,43.72
2022-08-08T20:12:59.278Z,43.69
2022-08-08T20:16:01.125Z,43.83
2022-08-08T20:18:29.677Z,43.96
2022-08-08T20:21:10.862Z,44.37
2022-08-08T20:23:44.250Z,44.64
2022-08-08T20:26:18.686Z,44.27
2022-08-08T20:29:00.610Z,44.32
2022-08-08T20:32:08.158Z,44.74
2022-08-08T20:34:31.688Z,44.56
2022-08-08T20:37:07.244Z,44.93
2022-08-08T20:39:51.314Z,45.71
2022-08-08T20:42:29.078Z,45.55
2022-08-08T20:45:02.507Z,45.71
2022-08-08T20:47:39.176Z,46.12
2022-08-08T20:50:12.943Z,46.58
2022-08-08T20:52:48.325Z,46.79
2022-08-08T20:55:25.630Z,46.65
2022-08-08T20:58:00.629Z,46.78
2022-08-08T21:00:39.806Z,46.41
2022-08-08T21:03:16.885Z,46.84
2022-08-08T21:05:58.816Z,46.80
2022-08-08T21:08:35.929Z,46.78
2022-08-08T21:11:51.216Z,46.65
2022-08-08T21:14:17.515Z,46.84
2022-08-08T21:16:50.611Z,46.59
2022-08-08T21:19:23.764Z,46.63
2022-08-08T21:22:07.409Z,47.22
2022-08-08T21:24:53.008Z,47.72
2022-08-08T21:27:38.824Z,47.54
2022-08-08T21:30:24.478Z,47.51
2022-08-08T21:32:58.003Z,47.87
2022-08-08T21:36:16.020Z,48.37
2022-08-08T21:38:27.529Z,48.67
2022-08-08T21:41:00.879Z,49.36
2022-08-08T21:43:35.635Z,49.57
2022-08-08T21:48:06.185Z,50.18
2022-08-08T21:49:05.522Z,50.72
2022-08-08T21:54:36.672Z,51.13
2022-08-08T21:55:02.399Z,50.51
2022-08-08T21:57:41.701Z,51.16
2022-08-08T22:00:16.887Z,51.51
2022-08-08T22:03:01.652Z,52.45
2022-08-08T22:05:37.461Z,52.23
2022-08-08T22:08:10.985Z,52.45
2022-08-08T22:10:45.232Z,51.76
2022-08-08T22:13:22.414Z,51.25
2022-08-08T22:15:59.642Z,51.26
2022-08-08T22:18:36.070Z,51.51
2022-08-08T22:21:14.186Z,51.64
2022-08-08T22:23:53.541Z,52.32
2022-08-08T22:26:31.021Z,52.62
2022-08-08T22:29:57.118Z,53.14
2022-08-08T22:32:02.602Z,53.22
2022-08-08T22:34:39.862Z,53.81
2022-08-08T22:37:14.748Z,54.14
2022-08-08T22:40:01.011Z,54.55
2022-08-08T22:42:35.300Z,54.25
2022-08-08T22:45:12.757Z,54.65
2022-08-08T22:47:48.947Z,54.95
2022-08-08T22:50:28.420Z,54.24
2022-08-08T22:54:29.171Z,54.32
2022-08-08T22:56:01.439Z,54.18
2022-08-08T22:58:35.282Z,54.74
2022-08-08T23:01:16.700Z,55.43
2022-08-08T23:04:05.757Z,55.34
2022-08-08T23:06:40.239Z,55.94
2022-08-08T23:09:14.991Z,55.78
2022-08-08T23:12:27.943Z,56.56
2022-08-08T23:14:42.616Z,55.63
2022-08-08T23:17:30.241Z,55.68
2022-08-08T23:20:03.496Z,55.98
2022-08-08T23:22:38.012Z,56.78
2022-08-08T23:25:12.999Z,56.42
2022-08-08T23:27:54.358Z,56.88
2022-08-08T23:30:27.997Z,56.86
2022-08-08T23:33:01.136Z,56.64
2022-08-08T23:36:06.644Z,57.16
2022-08-08T23:38:29.423Z,57.07
2022-08-08T23:41:05.131Z,57.14
2022-08-08T23:43:47.753Z,55.91
2022-08-08T23:49:06.560Z,55.84
2022-08-08T23:49:18.985Z,55.71
2022-08-08T23:52:06.287Z,55.79
2022-08-08T23:55:00.106Z,56.66
2022-08-08T23:57:39.189Z,56.67
